Time;durP1;ratioP1;P1;durP2;ratioP2;P2;SDS_P1;SDS_P2;PMS_P1;PMS_P2;Temp;Humidity;BMP_temperature;BMP_pressure;BME280_temperature;BME280_humidity;BME280_pressure;Samples;Min_cycle;Max_cycle;Signal;HPM_P1;HPM_P2
2021/04/18 00:03:10;;;;;;;34.35;20.45;;;;;;;4.29;82.45;99741.88;113253;1206;25995;-54
2021/04/18 00:05:57;;;;;;;33.80;20.20;;;;;;;4.30;82.39;99740.84;113240;1209;23124;-53
2021/04/18 00:08:30;;;;;;;35.05;19.85;;;;;;;4.30;82.67;99746.23;113305;1212;23149;-55
2021/04/18 00:10:58;;;;;;;34.55;20.25;;;;;;;4.28;82.66;99741.05;113291;1209;23104;-54
2021/04/18 00:13:26;;;;;;;37.07;21.50;;;;;;;4.28;82.91;99741.05;117220;1209;23556;-55
2021/04/18 00:15:53;;;;;;;32.85;19.35;;;;;;;4.30;83.31;99741.66;117231;1209;22951;-55
2021/04/18 00:18:21;;;;;;;32.10;18.90;;;;;;;4.31;83.34;99735.23;117195;1209;22833;-56
2021/04/18 00:20:48;;;;;;;29.27;18.87;;;;;;;4.35;83.61;99725.66;117216;1212;23012;-56
2021/04/18 00:23:16;;;;;;;31.80;18.70;;;;;;;4.38;83.92;99727.94;117190;1212;22887;-56
2021/04/18 00:25:43;;;;;;;30.95;18.25;;;;;;;4.40;83.81;99728.55;117262;1209;23637;-56
2021/04/18 00:28:11;;;;;;;31.67;17.67;;;;;;;4.43;84.03;99722.73;117194;1209;22839;-56
2021/04/18 00:30:38;;;;;;;34.10;20.00;;;;;;;4.47;83.88;99718.55;117213;1209;23044;-56
2021/04/18 00:33:06;;;;;;;36.00;18.95;;;;;;;4.51;84.09;99725.19;117133;1209;23028;-56
2021/04/18 00:35:36;;;;;;;30.73;17.67;;;;;;;4.54;84.15;99719.37;117274;1209;22861;-56
2021/04/18 00:38:03;;;;;;;30.05;16.90;;;;;;;4.59;84.26;99710.64;117176;1209;22858;-56
2021/04/18 00:40:31;;;;;;;29.85;17.10;;;;;;;4.62;84.31;99716.41;117224;1209;22834;-57
2021/04/18 00:42:59;;;;;;;30.10;17.90;;;;;;;4.67;84.16;99717.64;117184;1209;23051;-56
2021/04/18 00:45:26;;;;;;;30.47;17.50;;;;;;;4.69;84.39;99719.09;117200;1209;23046;-56
2021/04/18 00:47:54;;;;;;;30.55;18.30;;;;;;;4.74;84.00;99718.45;117200;1209;22842;-56
2021/04/18 00:50:33;;;;;;;31.20;18.30;;;;;;;4.75;83.80;99720.94;117178;1209;23004;-56
2021/04/18 00:53:05;;;;;;;37.00;18.50;;;;;;;4.76;84.19;99719.88;117170;1209;22916;-56
2021/04/18 00:55:33;;;;;;;33.55;18.70;;;;;;;4.81;84.48;99719.23;117205;1209;22845;-56
2021/04/18 00:58:01;;;;;;;29.40;17.30;;;;;;;4.85;84.18;99721.30;117219;1209;24111;-56
2021/04/18 01:00:29;;;;;;;27.85;18.70;;;;;;;4.90;84.46;99721.48;117225;1209;22880;-56
2021/04/18 01:02:57;;;;;;;29.50;16.55;;;;;;;4.93;84.75;99715.63;117175;1213;22954;-56
2021/04/18 01:05:33;;;;;;;30.25;17.00;;;;;;;4.98;84.58;99705.02;117179;1209;22881;-56
2021/04/18 01:08:03;;;;;;;28.75;17.20;;;;;;;5.03;84.66;99698.98;117203;1209;22942;-56
2021/04/18 01:10:30;;;;;;;29.90;17.30;;;;;;;5.07;84.16;99700.17;117250;1209;22916;-57
2021/04/18 01:13:12;;;;;;;28.70;16.85;;;;;;;5.11;84.32;99696.00;117262;1214;22864;-56
2021/04/18 01:15:39;;;;;;;30.83;17.47;;;;;;;5.13;84.43;99691.21;117187;1209;22992;-58
2021/04/18 01:18:08;;;;;;;27.10;16.60;;;;;;;5.16;84.20;99690.78;117251;1209;22907;-58
2021/04/18 01:20:37;;;;;;;30.20;16.90;;;;;;;5.18;84.31;99682.46;117216;1209;22916;-58
2021/04/18 01:23:25;;;;;;;31.13;16.98;;;;;;;5.20;84.22;99691.98;117235;1215;22890;-58
2021/04/18 01:26:11;;;;;;;31.80;16.70;;;;;;;5.22;84.44;99691.76;117220;1209;22799;-58
2021/04/18 01:28:39;;;;;;;30.00;16.75;;;;;;;5.23;84.88;99688.84;117205;1209;23010;-58
2021/04/18 01:31:07;;;;;;;26.40;14.70;;;;;;;5.26;84.43;99691.11;117201;1209;23784;-58
2021/04/18 01:33:36;;;;;;;22.40;15.05;;;;;;;5.31;84.10;99690.47;117234;1214;22842;-58
2021/04/18 01:36:14;;;;;;;23.90;15.87;;;;;;;5.36;84.31;99689.78;117187;1209;22825;-58
2021/04/18 01:38:41;;;;;;;25.35;15.60;;;;;;;5.38;83.96;99684.98;117164;1209;22804;-59
2021/04/18 01:41:10;;;;;;;24.70;15.50;;;;;;;5.37;84.01;99683.33;113736;1213;23125;-53
2021/04/18 01:43:40;;;;;;;29.55;15.55;;;;;;;5.37;83.96;99680.63;113301;1215;23230;-52
2021/04/18 01:46:09;;;;;;;27.70;16.03;;;;;;;5.38;83.88;99680.41;117193;1209;23661;-54
2021/04/18 01:48:38;;;;;;;24.05;14.95;;;;;;;5.40;84.43;99675.63;117182;1209;22892;-53
2021/04/18 01:51:07;;;;;;;25.07;15.53;;;;;;;5.43;84.08;99679.77;117150;1214;22848;-54
2021/04/18 01:53:36;;;;;;;26.45;15.85;;;;;;;5.45;84.42;99673.09;117209;1209;22911;-54
2021/04/18 01:56:06;;;;;;;29.50;16.35;;;;;;;5.50;84.24;99681.34;117223;1209;22883;-54
2021/04/18 01:58:37;;;;;;;25.33;16.17;;;;;;;5.52;84.08;99676.55;117244;1209;22845;-54
2021/04/18 02:01:06;;;;;;;29.77;16.33;;;;;;;5.53;83.99;99661.99;117203;1209;23707;-54
2021/04/18 02:03:37;;;;;;;25.17;16.33;;;;;;;5.55;84.57;99661.78;117228;1209;23676;-54
2021/04/18 02:06:07;;;;;;;22.00;13.75;;;;;;;5.55;84.56;99667.19;117189;1209;22805;-54
2021/04/18 02:08:42;;;;;;;17.75;12.40;;;;;;;5.58;84.62;99669.45;117207;1209;22937;-54
2021/04/18 02:11:10;;;;;;;22.45;13.30;;;;;;;5.57;84.01;99663.21;117144;1209;22871;-54
2021/04/18 02:13:57;;;;;;;20.80;13.53;;;;;;;5.57;84.39;99652.41;117199;1209;22946;-54
2021/04/18 02:16:44;;;;;;;20.50;14.10;;;;;;;5.58;84.16;99655.94;117186;1209;23882;-54
2021/04/18 02:19:14;;;;;;;23.85;14.60;;;;;;;5.58;84.54;99650.53;117200;1209;22911;-54
2021/04/18 02:21:43;;;;;;;24.30;15.00;;;;;;;5.61;84.57;99652.80;117214;1214;23388;-54
2021/04/18 02:24:11;;;;;;;30.80;16.30;;;;;;;5.62;84.58;99640.94;117200;1209;22837;-54
2021/04/18 02:26:40;;;;;;;26.00;16.00;;;;;;;5.62;84.41;99644.47;117166;1209;22924;-54
2021/04/18 02:29:08;;;;;;;22.80;14.70;;;;;;;5.62;84.62;99641.77;117217;1209;22999;-54
2021/04/18 02:31:47;;;;;;;25.20;15.35;;;;;;;5.61;83.81;99645.52;117207;1209;22871;-54
2021/04/18 02:34:15;;;;;;;29.13;15.53;;;;;;;5.56;84.52;99639.94;117218;1209;22858;-54
2021/04/18 02:36:43;;;;;;;21.40;13.80;;;;;;;5.54;83.97;99642.03;117176;1209;27391;-54
2021/04/18 02:39:10;;;;;;;23.80;14.70;;;;;;;5.53;84.37;99626.03;117091;1209;22822;-59
2021/04/18 02:41:38;;;;;;;25.90;15.70;;;;;;;5.50;84.71;99627.30;113362;1209;23160;-59
2021/04/18 02:44:07;;;;;;;25.23;14.53;;;;;;;5.47;84.24;99626.94;117198;1209;22972;-60
2021/04/18 02:46:35;;;;;;;22.67;14.53;;;;;;;5.44;84.96;99632.78;117220;1209;23780;-60
2021/04/18 02:49:03;;;;;;;19.70;13.50;;;;;;;5.42;84.47;99632.17;117193;1212;22962;-60
2021/04/18 02:51:31;;;;;;;24.05;14.65;;;;;;;5.40;85.23;99624.28;117214;1209;22940;-60
2021/04/18 02:54:00;;;;;;;22.43;14.00;;;;;;;5.41;85.15;99627.81;117176;1209;22949;-59
2021/04/18 02:56:29;;;;;;;22.10;13.65;;;;;;;5.38;84.72;99623.67;117161;1211;22818;-60
2021/04/18 02:59:03;;;;;;;23.50;14.20;;;;;;;5.38;85.06;99620.15;116934;1211;22850;-60
2021/04/18 03:01:32;;;;;;;21.00;13.10;;;;;;;5.39;85.34;99617.23;117149;1210;22919;-60
2021/04/18 03:03:59;;;;;;;18.65;12.00;;;;;;;5.38;84.69;99606.64;117137;1212;22974;-60
2021/04/18 03:06:27;;;;;;;25.30;13.65;;;;;;;5.37;85.30;99605.81;117247;1211;23506;-61
2021/04/18 03:08:55;;;;;;;23.40;13.90;;;;;;;5.30;85.14;99599.66;117098;1212;24029;-59
2021/04/18 03:11:43;;;;;;;28.50;13.63;;;;;;;5.37;85.29;99604.98;117144;1215;22980;-59
2021/04/18 03:14:27;;;;;;;22.27;13.40;;;;;;;5.35;85.32;99605.20;116915;1212;22871;-59
2021/04/18 03:16:55;;;;;;;15.90;11.25;;;;;;;5.33;85.51;99605.45;117096;1212;22966;-60
2021/04/18 03:19:25;;;;;;;18.30;11.70;;;;;;;5.32;85.46;99608.38;116970;1212;22837;-59
2021/04/18 03:21:56;;;;;;;24.40;12.40;;;;;;;5.30;85.38;99597.78;117079;1215;22933;-60
2021/04/18 03:24:23;;;;;;;18.70;11.90;;;;;;;5.32;85.54;99608.38;116959;1211;23826;-60
2021/04/18 03:26:52;;;;;;;17.50;11.00;;;;;;;5.34;84.95;99611.66;116887;1211;22860;-60
2021/04/18 03:29:19;;;;;;;16.05;11.05;;;;;;;5.33;85.49;99608.16;117183;1214;22936;-60
2021/04/18 03:31:47;;;;;;;15.65;10.15;;;;;;;5.29;85.21;99609.64;117207;1209;22932;-59
2021/04/18 03:34:16;;;;;;;14.50;10.10;;;;;;;5.27;84.97;99608.20;117187;1209;22852;-60
2021/04/18 03:36:43;;;;;;;17.60;12.10;;;;;;;5.25;85.19;99611.12;117222;1209;23594;-60
2021/04/18 03:39:16;;;;;;;18.75;11.30;;;;;;;5.26;85.57;99601.14;117181;1214;22947;-57
2021/04/18 03:41:46;;;;;;;17.45;10.70;;;;;;;5.25;85.46;99607.59;117172;1209;23128;-58
2021/04/18 03:44:14;;;;;;;17.50;10.50;;;;;;;5.26;85.58;99603.84;117199;1209;22823;-58
2021/04/18 03:46:42;;;;;;;15.70;10.90;;;;;;;5.29;85.66;99606.11;117228;1209;24205;-58
2021/04/18 03:49:11;;;;;;;19.35;11.10;;;;;;;5.31;85.16;99604.02;117180;1212;23520;-58
2021/04/18 03:51:52;;;;;;;21.90;11.50;;;;;;;5.30;85.05;99602.36;117239;1209;22810;-59
2021/04/18 03:54:21;;;;;;;16.35;11.30;;;;;;;5.32;85.63;99603.80;117174;1209;22930;-59
2021/04/18 03:56:49;;;;;;;14.80;10.40;;;;;;;5.34;85.77;99611.66;117182;1214;24117;-60
2021/04/18 03:59:18;;;;;;;14.70;10.90;;;;;;;5.37;85.70;99611.22;117179;1214;22882;-59
2021/04/18 04:01:47;;;;;;;14.70;10.45;;;;;;;5.40;85.40;99612.66;117040;1209;23704;-59
2021/04/18 04:04:18;;;;;;;25.15;11.25;;;;;;;5.41;85.43;99608.91;117201;1214;24018;-59
2021/04/18 04:06:47;;;;;;;16.60;10.45;;;;;;;5.42;85.65;99613.26;117166;1214;22922;-58
2021/04/18 04:09:14;;;;;;;16.65;11.35;;;;;;;5.46;85.70;99611.78;117243;1209;22863;-59
2021/04/18 04:11:43;;;;;;;14.35;9.80;;;;;;;5.47;85.67;99611.56;117148;1214;23591;-58
2021/04/18 04:14:18;;;;;;;17.80;10.10;;;;;;;5.48;85.19;99606.98;117225;1209;22838;-58
2021/04/18 04:16:53;;;;;;;15.73;10.70;;;;;;;5.52;85.66;99613.57;117173;1214;25358;-58
2021/04/18 04:19:24;;;;;;;14.20;9.70;;;;;;;5.54;85.19;99601.49;117205;1209;22936;-59
2021/04/18 04:22:24;;;;;;;14.95;10.35;;;;;;;5.58;85.43;99608.11;117062;1209;23790;-58
2021/04/18 04:25:14;;;;;;;14.15;9.75;;;;;;;5.61;85.45;99609.55;117257;1215;22873;-58
2021/04/18 04:27:42;;;;;;;14.65;9.90;;;;;;;5.61;85.19;99613.08;117192;1209;22896;-58
2021/04/18 04:30:10;;;;;;;14.15;10.25;;;;;;;5.60;84.91;99610.59;117211;1214;22905;-58
2021/04/18 04:32:38;;;;;;;18.55;11.35;;;;;;;5.61;85.01;99613.08;117168;1209;22882;-58
2021/04/18 04:35:06;;;;;;;15.85;9.50;;;;;;;5.64;85.28;99611.78;117234;1215;22831;-59
2021/04/18 04:37:34;;;;;;;15.15;9.70;;;;;;;5.67;85.30;99595.95;117222;1213;22799;-58
2021/04/18 04:40:01;;;;;;;12.80;8.70;;;;;;;5.69;84.97;99603.83;117199;1209;22896;-58
2021/04/18 04:42:29;;;;;;;13.80;9.50;;;;;;;5.70;85.26;99594.68;117174;1215;22896;-59
2021/04/18 04:44:57;;;;;;;13.73;9.80;;;;;;;5.71;85.56;99595.50;117223;1209;22890;-58
2021/04/18 04:47:24;;;;;;;16.25;10.25;;;;;;;5.77;85.27;99600.03;117171;1215;23669;-59
2021/04/18 04:49:52;;;;;;;16.50;9.85;;;;;;;5.80;85.26;99594.14;117206;1209;22878;-58
2021/04/18 04:52:19;;;;;;;16.35;9.60;;;;;;;5.82;85.11;99595.58;117168;1209;22893;-58
2021/04/18 04:54:47;;;;;;;12.85;9.40;;;;;;;5.87;85.46;99597.61;117214;1209;22882;-58
2021/04/18 04:57:15;;;;;;;16.10;9.95;;;;;;;5.91;85.49;99594.27;117137;1209;22879;-59
2021/04/18 04:59:43;;;;;;;14.07;9.67;;;;;;;5.95;85.11;99590.05;117230;1209;22903;-59
2021/04/18 05:02:10;;;;;;;13.20;9.87;;;;;;;5.98;84.77;99584.19;117214;1209;23720;-58
2021/04/18 05:04:38;;;;;;;15.90;10.10;;;;;;;6.03;85.39;99586.22;117191;1209;22970;-58
2021/04/18 05:07:05;;;;;;;18.60;10.60;;;;;;;6.09;85.21;99579.89;117256;1209;22848;-58
2021/04/18 05:09:33;;;;;;;18.70;10.95;;;;;;;6.15;85.05;99576.28;117172;1215;22967;-58
2021/04/18 05:12:05;;;;;;;12.30;9.45;;;;;;;6.18;85.01;99569.59;117229;1209;22868;-58
2021/04/18 05:14:32;;;;;;;14.55;10.25;;;;;;;6.21;84.87;99567.23;117166;1209;22849;-59
2021/04/18 05:17:00;;;;;;;16.03;11.57;;;;;;;6.24;85.11;99560.55;117247;1209;22963;-59
2021/04/18 05:19:28;;;;;;;13.70;10.20;;;;;;;6.28;84.73;99559.05;117184;1209;22812;-58
2021/04/18 05:21:55;;;;;;;21.75;15.50;;;;;;;6.30;84.95;99555.06;117215;1209;22943;-58
2021/04/18 05:24:23;;;;;;;17.57;12.43;;;;;;;6.35;84.86;99557.06;117195;1209;23534;-59
2021/04/18 05:26:51;;;;;;;16.25;11.90;;;;;;;6.39;85.19;99552.84;117214;1209;23761;-59
2021/04/18 05:29:19;;;;;;;18.35;11.55;;;;;;;6.41;84.85;99547.21;117185;1209;24085;-58
2021/04/18 05:31:47;;;;;;;23.85;11.80;;;;;;;6.46;84.85;99553.59;117156;1209;22850;-58
2021/04/18 05:34:15;;;;;;;18.05;11.55;;;;;;;6.50;84.58;99556.64;117203;1209;22820;-58
2021/04/18 05:36:42;;;;;;;15.20;11.20;;;;;;;6.52;84.16;99558.06;117199;1209;22832;-59
2021/04/18 05:39:10;;;;;;;17.85;12.25;;;;;;;6.54;84.21;99547.84;117209;1215;23477;-57
2021/04/18 05:41:38;;;;;;;18.67;11.50;;;;;;;6.58;84.04;99551.74;117226;1214;23709;-59
2021/04/18 05:44:07;;;;;;;16.10;11.65;;;;;;;6.60;83.61;99546.92;117146;1209;23017;-59
2021/04/18 05:46:35;;;;;;;18.30;12.10;;;;;;;6.62;84.14;99557.53;117164;1209;22891;-59
2021/04/18 05:49:03;;;;;;;18.93;12.63;;;;;;;6.64;83.64;99566.22;117175;1215;22845;-59
2021/04/18 05:51:32;;;;;;;17.95;12.00;;;;;;;6.63;83.87;99556.47;117224;1214;22821;-59
2021/04/18 05:53:59;;;;;;;17.90;12.70;;;;;;;6.64;83.69;99563.51;117188;1209;22959;-59
2021/04/18 05:56:27;;;;;;;19.70;11.00;;;;;;;6.65;83.87;99554.33;117173;1209;22909;-59
2021/04/18 05:58:55;;;;;;;16.35;11.90;;;;;;;6.67;83.48;99561.17;117236;1215;22943;-58
2021/04/18 06:01:23;;;;;;;16.40;11.45;;;;;;;6.69;83.72;99545.52;117236;1214;22858;-58
2021/04/18 06:03:55;;;;;;;18.50;13.15;;;;;;;6.72;83.47;99539.66;117228;1209;24046;-57
2021/04/18 06:06:23;;;;;;;18.15;12.80;;;;;;;6.75;83.58;99549.20;117256;1209;22828;-57
2021/04/18 06:08:51;;;;;;;20.15;12.90;;;;;;;6.78;83.32;99547.91;117232;1209;22864;-58
2021/04/18 06:11:18;;;;;;;17.80;11.10;;;;;;;6.79;83.24;99552.24;117187;1212;23461;-58
2021/04/18 06:13:46;;;;;;;21.90;15.40;;;;;;;6.79;83.47;99554.95;117233;1209;22829;-57
2021/04/18 06:16:14;;;;;;;16.40;11.83;;;;;;;6.82;83.43;99555.31;115305;1176;23603;-53
2021/04/18 06:18:42;;;;;;;17.20;12.05;;;;;;;6.85;83.00;99548.62;113041;1212;28226;-55
2021/04/18 06:21:10;;;;;;;14.60;11.15;;;;;;;6.88;83.52;99551.69;113078;1215;23130;-54
2021/04/18 06:23:37;;;;;;;13.90;10.60;;;;;;;6.92;83.65;99547.47;116934;1211;23031;-55
2021/04/18 06:26:06;;;;;;;16.50;12.00;;;;;;;6.97;83.37;99542.16;117216;1210;22874;-56
2021/04/18 06:28:33;;;;;;;15.50;11.00;;;;;;;7.02;83.57;99538.75;117221;1212;22839;-55
2021/04/18 06:31:01;;;;;;;16.63;11.13;;;;;;;7.08;83.31;99527.78;117190;1215;22938;-56
2021/04/18 06:33:29;;;;;;;13.25;11.00;;;;;;;7.15;82.88;99529.56;117204;1212;22925;-55
2021/04/18 06:35:57;;;;;;;14.30;10.15;;;;;;;7.22;83.55;99536.50;117206;1210;22893;-55
2021/04/18 06:38:25;;;;;;;14.85;10.55;;;;;;;7.32;83.56;99535.93;117237;1212;24150;-56
2021/04/18 06:40:53;;;;;;;19.30;11.15;;;;;;;7.40;83.62;99532.84;117221;1211;22869;-56
2021/04/18 06:43:21;;;;;;;15.47;10.80;;;;;;;7.45;83.19;99528.38;117212;1214;22909;-55
2021/04/18 06:45:51;;;;;;;19.20;10.85;;;;;;;7.51;83.19;99536.59;117187;1210;22928;-55
2021/04/18 06:48:33;;;;;;;13.75;10.10;;;;;;;7.56;82.26;99534.02;117198;1211;23050;-56
2021/04/18 06:51:02;;;;;;;13.20;9.45;;;;;;;7.58;82.41;99540.85;117118;1212;23537;-57
2021/04/18 06:53:32;;;;;;;13.55;9.25;;;;;;;7.58;82.01;99538.14;117197;1211;23634;-55
2021/04/18 06:56:03;;;;;;;14.25;8.90;;;;;;;7.56;81.92;99537.55;117197;1215;23032;-56
2021/04/18 06:58:31;;;;;;;11.15;8.25;;;;;;;7.57;81.25;99527.53;117215;1212;22819;-56
2021/04/18 07:00:59;;;;;;;12.25;9.30;;;;;;;7.57;81.04;99519.40;117221;1212;22915;-56
2021/04/18 07:03:27;;;;;;;11.35;9.00;;;;;;;7.56;81.16;99526.70;117172;1213;22906;-56
2021/04/18 07:05:58;;;;;;;14.25;9.40;;;;;;;7.55;81.00;99525.05;117180;1215;22851;-56
2021/04/18 07:08:30;;;;;;;11.20;8.40;;;;;;;7.56;81.37;99525.88;117193;1209;22945;-56
2021/04/18 07:11:10;;;;;;;13.20;9.15;;;;;;;7.58;80.73;99527.30;117246;1209;22834;-56
2021/04/18 07:13:40;;;;;;;14.40;10.05;;;;;;;7.61;81.71;99526.00;117185;1214;22847;-56
2021/04/18 07:16:32;;;;;;;13.60;8.80;;;;;;;7.62;81.72;99530.36;117204;1212;23348;-56
2021/04/18 07:19:01;;;;;;;11.80;8.50;;;;;;;7.65;81.64;99527.15;117157;1212;22836;-57
2021/04/18 07:21:49;;;;;;;12.25;8.80;;;;;;;7.66;81.27;99523.38;117224;1214;23127;-58
2021/04/18 07:24:18;;;;;;;11.15;8.30;;;;;;;7.66;81.52;99523.38;117162;1211;23969;-58
2021/04/18 07:26:55;;;;;;;10.70;8.40;;;;;;;7.65;80.90;99522.55;117223;1211;22853;-59
2021/04/18 07:29:24;;;;;;;13.67;9.40;;;;;;;7.68;81.42;99524.79;117197;1212;22973;-59
2021/04/18 07:31:52;;;;;;;17.55;9.25;;;;;;;7.68;80.77;99518.55;117191;1212;23711;-59
2021/04/18 07:34:21;;;;;;;13.30;10.50;;;;;;;7.68;80.88;99510.41;117183;1211;22877;-59
2021/04/18 07:36:51;;;;;;;18.65;13.65;;;;;;;7.68;81.38;99513.94;117186;1212;23070;-59
2021/04/18 07:39:18;;;;;;;13.50;10.70;;;;;;;7.69;81.04;99512.05;117183;1214;22879;-58
2021/04/18 07:41:48;;;;;;;13.33;10.57;;;;;;;7.72;80.92;99514.30;117203;1212;22952;-58
2021/04/18 07:44:18;;;;;;;13.95;10.50;;;;;;;7.73;81.39;99511.35;117162;1211;23764;-58
2021/04/18 07:46:47;;;;;;;15.10;9.40;;;;;;;7.75;81.07;99508.40;117226;1214;22836;-59
2021/04/18 07:49:17;;;;;;;13.85;9.15;;;;;;;7.75;80.72;99511.11;117171;1214;22890;-59
2021/04/18 07:51:48;;;;;;;12.50;9.00;;;;;;;7.74;81.21;99504.86;117195;1214;22928;-59
2021/04/18 07:54:17;;;;;;;20.80;9.80;;;;;;;7.77;81.18;99509.81;117156;1211;22882;-59
2021/04/18 07:56:48;;;;;;;15.50;10.80;;;;;;;7.78;80.64;99514.17;117203;1211;22823;-60
2021/04/18 07:59:21;;;;;;;13.00;9.20;;;;;;;7.81;80.63;99518.27;117220;1210;23161;-59
2021/04/18 08:01:48;;;;;;;17.37;10.13;;;;;;;7.83;81.12;99515.32;117161;1214;22919;-59
2021/04/18 08:04:19;;;;;;;15.47;10.10;;;;;;;7.83;81.17;99518.03;117193;1210;23529;-58
2021/04/18 08:06:47;;;;;;;14.10;9.85;;;;;;;7.85;80.93;99521.34;117204;1212;22871;-59
2021/04/18 08:09:18;;;;;;;15.60;11.65;;;;;;;7.85;80.38;99519.45;117233;1214;22887;-59
2021/04/18 08:12:17;;;;;;;14.10;10.35;;;;;;;7.87;80.52;99517.33;117169;1213;22880;-59
2021/04/18 08:14:48;;;;;;;17.23;10.80;;;;;;;7.88;80.71;99520.86;117140;1212;22845;-59
2021/04/18 08:17:17;;;;;;;12.75;10.00;;;;;;;7.89;81.17;99526.05;117197;1215;23262;-59
2021/04/18 08:19:58;;;;;;;12.05;8.95;;;;;;;7.91;80.85;99514.96;117241;1212;22917;-59
2021/04/18 08:22:46;;;;;;;13.13;9.03;;;;;;;7.93;80.69;99524.52;117225;1212;22942;-59
2021/04/18 08:25:14;;;;;;;12.95;9.10;;;;;;;7.79;80.75;99510.38;117239;1212;23784;-59
2021/04/18 08:28:02;;;;;;;11.80;8.90;;;;;;;7.93;80.18;99529.11;117217;1212;22867;-59
2021/04/18 08:30:30;;;;;;;14.85;10.90;;;;;;;7.94;80.37;99530.73;117230;1211;22915;-59
2021/04/18 08:32:58;;;;;;;17.47;11.80;;;;;;;7.95;80.62;99530.50;117205;1211;22809;-59
2021/04/18 08:35:26;;;;;;;13.80;10.05;;;;;;;7.93;80.17;99521.80;117209;1215;22857;-59
2021/04/18 08:38:12;;;;;;;13.05;9.15;;;;;;;7.94;80.07;99523.42;117172;1214;22858;-59
2021/04/18 08:40:41;;;;;;;13.55;10.05;;;;;;;7.95;80.51;99516.11;117240;1212;23774;-58
2021/04/18 08:43:19;;;;;;;16.90;10.40;;;;;;;7.95;80.56;99514.22;117206;1212;24659;-58
2021/04/18 08:45:47;;;;;;;19.40;12.00;;;;;;;7.96;80.65;99513.16;117250;1211;23017;-58
2021/04/18 08:48:15;;;;;;;69.70;30.05;;;;;;;7.97;80.42;99513.98;117156;1212;22955;-58
2021/04/18 08:50:57;;;;;;;35.55;21.70;;;;;;;7.99;80.77;99509.14;117192;1211;24070;-58
2021/04/18 08:53:25;;;;;;;16.60;11.90;;;;;;;8.00;80.79;99497.23;117205;1212;22851;-58
2021/04/18 08:56:02;;;;;;;12.95;10.10;;;;;;;8.01;80.15;99501.59;117187;1210;22809;-58
2021/04/18 08:58:36;;;;;;;33.40;24.27;;;;;;;8.02;80.26;99500.52;117188;1211;22919;-58
2021/04/18 09:01:11;;;;;;;27.87;17.63;;;;;;;8.02;79.92;99505.95;117168;1212;22869;-58
2021/04/18 09:03:58;;;;;;;;;;;;;;;8.03;79.83;99503.00;117160;1213;22929;-58
2021/04/18 09:06:35;;;;;;;34.10;24.05;;;;;;;8.03;80.54;99507.60;117210;1209;22191;-58
2021/04/18 09:09:05;;;;;;;31.55;23.70;;;;;;;8.06;80.12;99502.52;117185;1212;22808;-58
2021/04/18 09:11:40;;;;;;;34.10;23.60;;;;;;;8.09;80.20;99501.19;117177;1215;23042;-58
2021/04/18 09:14:07;;;;;;;28.50;20.65;;;;;;;8.12;80.43;99504.25;117164;1210;22840;-58
2021/04/18 09:16:36;;;;;;;25.47;18.03;;;;;;;8.15;80.34;99505.66;117187;1212;22917;-59
2021/04/18 09:19:24;;;;;;;17.73;13.53;;;;;;;8.18;79.99;99510.61;117209;1212;22816;-59
2021/04/18 09:21:55;;;;;;;22.10;16.10;;;;;;;8.20;80.07;99513.08;117184;1212;23760;-59
2021/04/18 09:24:24;;;;;;;18.50;13.05;;;;;;;8.20;80.33;99508.48;117159;1212;23529;-58
2021/04/18 09:27:03;;;;;;;14.85;10.70;;;;;;;8.22;79.85;99505.53;117217;1212;23748;-58
2021/04/18 09:29:33;;;;;;;15.80;11.50;;;;;;;8.23;79.73;99507.97;117195;1211;23003;-58
2021/04/18 09:32:06;;;;;;;17.10;11.70;;;;;;;8.26;80.01;99510.20;117205;1215;22841;-58
2021/04/18 09:34:35;;;;;;;16.90;11.73;;;;;;;8.30;80.02;99507.84;117211;1211;22897;-58
2021/04/18 09:37:06;;;;;;;37.27;20.87;;;;;;;8.24;80.15;99504.19;117210;1212;23880;-58
2021/04/18 09:39:36;;;;;;;35.30;23.87;;;;;;;8.34;79.70;99514.47;117186;1212;22996;-59
2021/04/18 09:42:04;;;;;;;48.83;29.20;;;;;;;8.37;80.23;99512.06;117145;1214;22850;-59
2021/04/18 09:44:37;;;;;;;25.60;17.00;;;;;;;8.39;79.73;99519.97;117230;1211;22922;-59
2021/04/18 09:47:07;;;;;;;59.87;35.77;;;;;;;8.39;79.64;99519.97;117207;1215;22986;-59
2021/04/18 09:50:05;;;;;;;41.50;26.70;;;;;;;8.40;79.92;99516.19;117201;1209;22895;-59
2021/04/18 09:52:38;;;;;;;51.40;32.23;;;;;;;8.42;79.84;99514.88;116819;1215;22909;-59
2021/04/18 09:55:20;;;;;;;25.30;15.90;;;;;;;8.45;79.45;99516.30;116753;1218;23064;-59
2021/04/18 09:57:50;;;;;;;30.40;19.30;;;;;;;8.49;79.49;99517.45;116815;1215;22904;-59
2021/04/18 10:00:27;;;;;;;43.00;25.90;;;;;;;8.52;80.01;99516.95;116784;1215;23042;-59
2021/04/18 10:03:02;;;;;;;25.60;16.50;;;;;;;8.58;79.57;99520.59;116882;1215;23997;-59
2021/04/18 10:05:32;;;;;;;18.40;11.20;;;;;;;8.59;79.78;99523.06;116786;1218;23170;-60
2021/04/18 10:08:15;;;;;;;23.95;14.85;;;;;;;8.59;79.73;99524.95;116824;1215;22975;-59
2021/04/18 10:10:43;;;;;;;31.43;18.47;;;;;;;8.59;79.35;99517.63;116769;1214;23571;-59
2021/04/18 10:13:11;;;;;;;27.30;15.50;;;;;;;8.58;79.93;99529.55;116776;1215;22999;-59
2021/04/18 10:15:54;;;;;;;22.00;13.00;;;;;;;8.58;79.79;99540.42;116770;1214;22954;-59
2021/04/18 10:18:22;;;;;;;15.70;11.15;;;;;;;8.60;79.25;99535.57;116779;1214;22905;-59
2021/04/18 10:20:50;;;;;;;19.30;11.90;;;;;;;8.62;79.82;99529.90;116808;1214;23890;-60
2021/04/18 10:23:18;;;;;;;13.35;10.15;;;;;;;8.61;79.13;99537.22;116796;1216;23110;-59
2021/04/18 10:25:45;;;;;;;21.15;13.40;;;;;;;8.61;79.18;99539.94;116865;1213;22861;-59
2021/04/18 10:28:14;;;;;;;26.10;16.60;;;;;;;8.61;79.62;99539.11;116842;1212;23699;-60
2021/04/18 10:30:42;;;;;;;22.50;15.20;;;;;;;8.62;79.41;99543.48;117183;1209;22871;-59
2021/04/18 10:33:09;;;;;;;14.95;10.70;;;;;;;8.60;79.08;99549.15;117195;1210;23860;-59
2021/04/18 10:35:37;;;;;;;14.33;9.67;;;;;;;8.57;79.58;99552.34;117246;1211;22858;-59
2021/04/18 10:38:05;;;;;;;16.43;10.27;;;;;;;8.58;79.71;99559.43;117188;1215;22919;-59
2021/04/18 10:40:32;;;;;;;12.90;9.15;;;;;;;8.56;79.11;99558.84;117243;1211;23718;-59
2021/04/18 10:42:59;;;;;;;12.63;9.13;;;;;;;8.55;79.61;99559.09;117199;1212;23815;-59
2021/04/18 10:45:27;;;;;;;10.85;8.00;;;;;;;8.51;79.29;99554.14;117181;1212;23869;-58
2021/04/18 10:47:55;;;;;;;19.77;10.97;;;;;;;8.49;79.73;99563.62;117172;1215;22969;-58
2021/04/18 10:50:23;;;;;;;24.05;10.90;;;;;;;8.48;79.42;99553.83;117235;1210;22902;-57
2021/04/18 10:52:51;;;;;;;16.80;10.45;;;;;;;8.48;80.08;99560.08;117174;1211;23465;-58
2021/04/18 10:55:19;;;;;;;22.95;14.90;;;;;;;8.48;79.99;99557.36;117203;1211;23031;-57
2021/04/18 10:57:46;;;;;;;22.70;11.73;;;;;;;8.51;80.14;99553.34;117170;1212;23824;-57
2021/04/18 11:00:22;;;;;;;17.85;9.65;;;;;;;8.51;80.43;99556.05;117216;1210;22833;-57
2021/04/18 11:02:50;;;;;;;18.65;10.35;;;;;;;8.51;80.32;99553.34;117190;1211;23062;-57
2021/04/18 11:05:19;;;;;;;21.70;10.60;;;;;;;8.54;80.16;99550.11;117250;1212;23621;-57
2021/04/18 11:07:48;;;;;;;21.45;10.50;;;;;;;8.58;80.49;99550.45;117185;1215;22871;-57
2021/04/18 11:10:15;;;;;;;23.00;10.70;;;;;;;8.63;80.54;99553.27;117196;1212;23719;-57
2021/04/18 11:12:43;;;;;;;19.10;10.40;;;;;;;8.68;80.55;99559.61;117215;1211;23971;-57
2021/04/18 11:15:11;;;;;;;24.90;10.10;;;;;;;8.72;79.90;99549.91;117192;1212;22835;-57
2021/04/18 11:17:39;;;;;;;13.90;8.80;;;;;;;8.74;80.22;99547.77;117228;1212;22846;-57
2021/04/18 11:20:08;;;;;;;12.80;9.90;;;;;;;8.78;80.60;99553.55;117187;1211;22909;-57
2021/04/18 11:22:38;;;;;;;18.30;9.97;;;;;;;8.83;80.60;99557.16;117201;1211;22964;-57
2021/04/18 11:25:06;;;;;;;30.83;17.53;;;;;;;8.88;80.19;99547.45;117172;1214;22979;-57
2021/04/18 11:27:35;;;;;;;19.55;10.85;;;;;;;8.93;80.43;99551.09;117220;1210;22806;-58
2021/04/18 11:30:08;;;;;;;18.80;9.70;;;;;;;8.98;79.77;99555.77;117183;1212;22927;-58
2021/04/18 11:32:36;;;;;;;17.87;12.30;;;;;;;9.02;79.44;99554.20;117216;1210;22835;-58
2021/04/18 11:35:05;;;;;;;12.60;9.55;;;;;;;9.05;79.43;99561.88;117093;1215;23072;-58
2021/04/18 11:37:33;;;;;;;19.00;10.70;;;;;;;9.05;79.51;99556.44;117260;1209;22851;-58